Peconic, New York
Current Conditions -  °F | °C
As of 11:53 PM on Saturday 22 Nov 2014 (Local Time) from KFOK Reporting Station
Few Clouds Few Clouds  
Wind Chill: 36°   Ceiling: Unl
Heat Index: 44°   Visibility: 10mi
Dew Point: 26°   Wind: 20mph
Humidity: 49%   Direction: 240°WSW
Pressure: 30.21"   Gusts: NA
Location:  41.04°N, 72.46°W
Report Text: KFOK 230453Z AUTO 24017KT 10SM FEW080 07/M03 A3021 RMK AO2 PK WND 25026/0400 SLP229 T00671033 400721111 TSNO
Loading
Personal Weather Stations






























Interactive Weather Map New forecast layout! Learn more

10-Day Weather Forecast

Advertisements
Track Severe Weather on mobile